createdAt,value
2023-05-05T00:01:03.385Z,101554.44
2023-05-05T00:03:31.457Z,101553.69
2023-05-05T00:05:58.956Z,101551.22
2023-05-05T00:08:26.072Z,101548.63
2023-05-05T00:10:54.247Z,101549.56
2023-05-05T00:13:22.002Z,101548.94
2023-05-05T00:15:50.702Z,101550.91
2023-05-05T00:18:18.605Z,101541.97
2023-05-05T00:20:47.425Z,101544.66
2023-05-05T00:23:16.465Z,101543.91
2023-05-05T00:25:43.549Z,101545.75
2023-05-05T00:28:10.692Z,101542.28
2023-05-05T00:30:40.327Z,101534.31
2023-05-05T00:33:15.418Z,101541.66
2023-05-05T00:35:45.076Z,101532.81
2023-05-05T00:38:12.068Z,101540.28
2023-05-05T00:40:39.222Z,101544.81
2023-05-05T00:43:07.755Z,101547.44
2023-05-05T00:45:37.061Z,101537.97
2023-05-05T00:48:04.535Z,101539.31
2023-05-05T00:50:31.880Z,101535.00
2023-05-05T00:53:03.278Z,101532.38
2023-05-05T00:55:32.543Z,101532.28
2023-05-05T00:58:03.325Z,101534.13
2023-05-05T01:00:31.660Z,101542.34
2023-05-05T01:02:59.876Z,101546.03
2023-05-05T01:05:48.381Z,101539.00
2023-05-05T01:08:44.527Z,101533.72
2023-05-05T01:11:35.952Z,101525.84
2023-05-05T01:14:26.062Z,101525.00
2023-05-05T01:17:22.456Z,101528.44
2023-05-05T01:20:11.946Z,101534.94
2023-05-05T01:22:47.099Z,101530.41
2023-05-05T01:25:47.837Z,101527.94
2023-05-05T01:28:34.760Z,101530.63
2023-05-05T01:31:14.228Z,101533.44
2023-05-05T01:33:49.859Z,101527.31
2023-05-05T01:36:24.392Z,101529.00
2023-05-05T01:38:58.226Z,101530.00
2023-05-05T01:41:32.449Z,101534.00
2023-05-05T01:44:03.395Z,101532.94
2023-05-05T01:46:30.682Z,101529.25
2023-05-05T01:48:59.068Z,101522.00
2023-05-05T01:51:28.034Z,101525.69
2023-05-05T01:54:02.751Z,101529.25
2023-05-05T01:56:31.736Z,101525.06
2023-05-05T01:59:01.783Z,101525.91
2023-05-05T02:01:30.575Z,101529.81
2023-05-05T02:03:59.816Z,101526.13
2023-05-05T02:06:32.466Z,101526.22
2023-05-05T02:09:01.619Z,101526.34
2023-05-05T02:11:29.913Z,101531.97
2023-05-05T02:13:58.966Z,101533.81
2023-05-05T02:16:27.420Z,101536.75
2023-05-05T02:18:57.461Z,101522.50
2023-05-05T02:21:24.410Z,101532.44
2023-05-05T02:23:52.149Z,101531.53
2023-05-05T02:26:22.953Z,101529.81
2023-05-05T02:29:07.612Z,101520.97
2023-05-05T02:31:41.627Z,101521.09
2023-05-05T02:34:09.379Z,101525.09
2023-05-05T02:36:40.047Z,101523.38
2023-05-05T02:39:14.934Z,101517.09
2023-05-05T02:41:44.450Z,101520.78
2023-05-05T02:44:24.903Z,101516.38
2023-05-05T02:46:54.456Z,101515.59
2023-05-05T02:49:21.881Z,101512.28
2023-05-05T02:51:49.608Z,101512.41
2023-05-05T02:54:26.039Z,101512.63
2023-05-05T02:56:56.782Z,101510.88
2023-05-05T03:00:06.352Z,101512.72
2023-05-05T03:02:54.813Z,101506.69
2023-05-05T03:05:35.821Z,101513.91
2023-05-05T03:08:29.749Z,101505.19
2023-05-05T03:11:07.067Z,101503.69
2023-05-05T03:13:43.067Z,101501.09
2023-05-05T03:16:15.543Z,101502.16
2023-05-05T03:18:43.583Z,101495.28
2023-05-05T03:21:11.900Z,101497.22
2023-05-05T03:23:42.020Z,101486.56
2023-05-05T03:26:18.814Z,101496.78
2023-05-05T03:28:47.158Z,101494.31
2023-05-05T03:31:22.856Z,101496.16
2023-05-05T03:33:54.729Z,101498.00
2023-05-05T03:36:27.796Z,101490.25
2023-05-05T03:38:56.553Z,101485.81
2023-05-05T03:41:25.869Z,101497.69
2023-05-05T03:43:53.848Z,101488.84
2023-05-05T03:46:21.381Z,101495.31
2023-05-05T03:48:48.825Z,101500.91
2023-05-05T03:51:16.666Z,101498.34
2023-05-05T03:53:43.953Z,101495.88
2023-05-05T03:56:11.349Z,101492.53
2023-05-05T03:58:38.879Z,101491.66
2023-05-05T04:01:07.260Z,101494.38
2023-05-05T04:03:34.897Z,101493.59
2023-05-05T04:06:02.563Z,101488.31
2023-05-05T04:08:31.640Z,101491.97
2023-05-05T04:10:58.719Z,101489.41
2023-05-05T04:13:26.133Z,101490.34
2023-05-05T04:15:53.659Z,101492.19
2023-05-05T04:18:21.186Z,101491.34
2023-05-05T04:20:48.356Z,101498.56
2023-05-05T04:23:16.992Z,101493.16
2023-05-05T04:25:45.766Z,101491.34
2023-05-05T04:28:13.616Z,101494.03
2023-05-05T04:30:41.872Z,101495.88
2023-05-05T04:33:09.881Z,101501.34
2023-05-05T04:35:37.127Z,101491.53
2023-05-05T04:38:04.216Z,101499.63
2023-05-05T04:40:31.704Z,101506.94
2023-05-05T04:42:59.319Z,101502.53
2023-05-05T04:45:26.526Z,101500.81
2023-05-05T04:47:53.695Z,101502.75
2023-05-05T04:50:21.644Z,101503.72
2023-05-05T04:52:48.935Z,101507.47
2023-05-05T04:55:16.820Z,101516.41
2023-05-05T04:57:44.547Z,101513.63
2023-05-05T05:00:13.079Z,101521.63
2023-05-05T05:02:40.408Z,101518.91
2023-05-05T05:05:10.112Z,101529.63
2023-05-05T05:07:37.488Z,101530.47
2023-05-05T05:10:04.985Z,101534.78
2023-05-05T05:12:32.262Z,101536.38
2023-05-05T05:14:59.301Z,101540.69
2023-05-05T05:17:26.974Z,101540.63
2023-05-05T05:19:55.489Z,101540.41
2023-05-05T05:22:23.251Z,101546.53
2023-05-05T05:24:50.809Z,101549.88
2023-05-05T05:27:18.006Z,101547.94
2023-05-05T05:29:47.675Z,101554.97
2023-05-05T05:32:15.859Z,101558.41
2023-05-05T05:34:43.053Z,101552.78
2023-05-05T05:37:12.397Z,101555.28
2023-05-05T05:39:41.997Z,101553.34
2023-05-05T05:42:11.311Z,101565.75
2023-05-05T05:44:38.261Z,101556.69
2023-05-05T05:47:05.600Z,101557.88
2023-05-05T05:49:32.677Z,101565.75
2023-05-05T05:51:59.615Z,101567.25
2023-05-05T05:54:26.724Z,101564.34
2023-05-05T05:56:54.482Z,101567.81
2023-05-05T05:59:21.832Z,101572.84
2023-05-05T06:01:48.990Z,101572.66
2023-05-05T06:04:16.487Z,101576.84
2023-05-05T06:06:44.502Z,101568.53
2023-05-05T06:09:11.560Z,101573.72
2023-05-05T06:11:43.713Z,101571.66
2023-05-05T06:14:11.369Z,101573.16
2023-05-05T06:16:38.651Z,101573.78
2023-05-05T06:19:10.798Z,101573.56
2023-05-05T06:21:38.669Z,101575.31
2023-05-05T06:24:06.106Z,101563.44
2023-05-05T06:26:35.190Z,101563.19
2023-05-05T06:29:02.838Z,101576.19
2023-05-05T06:31:30.103Z,101562.25
2023-05-05T06:33:57.236Z,101561.03
2023-05-05T06:36:24.320Z,101560.59
2023-05-05T06:38:51.417Z,101562.97
2023-05-05T06:41:18.407Z,101566.22
2023-05-05T06:43:45.445Z,101564.03
2023-05-05T06:46:14.400Z,101565.56
2023-05-05T06:48:41.501Z,101558.94
2023-05-05T06:51:09.715Z,101560.66
2023-05-05T06:53:36.925Z,101560.34
2023-05-05T06:56:04.576Z,101563.53
2023-05-05T06:58:31.753Z,101569.56
2023-05-05T07:00:58.762Z,101568.47
2023-05-05T07:03:28.399Z,101570.84
2023-05-05T07:05:55.986Z,101567.03
2023-05-05T07:08:23.030Z,101570.28
2023-05-05T07:10:49.984Z,101570.03
2023-05-05T07:13:17.500Z,101567.22
2023-05-05T07:15:46.612Z,101568.72
2023-05-05T07:18:15.355Z,101569.47
2023-05-05T07:20:46.595Z,101565.56
2023-05-05T07:23:14.006Z,101569.75
2023-05-05T07:25:41.206Z,101566.69
2023-05-05T07:28:08.299Z,101565.38
2023-05-05T07:30:36.509Z,101561.44
2023-05-05T07:33:04.055Z,101563.06
2023-05-05T07:35:31.174Z,101566.16
2023-05-05T07:37:58.842Z,101557.59
2023-05-05T07:40:26.015Z,101561.16
2023-05-05T07:42:53.110Z,101572.50
2023-05-05T07:45:21.253Z,101566.34
2023-05-05T07:47:48.549Z,101571.03
2023-05-05T07:50:16.354Z,101573.41
2023-05-05T07:52:49.881Z,101571.94
2023-05-05T07:55:23.327Z,101568.75
2023-05-05T07:57:50.986Z,101569.13
2023-05-05T08:00:19.632Z,101571.34
2023-05-05T08:02:48.224Z,101569.88
2023-05-05T08:05:16.986Z,101562.00
2023-05-05T08:07:44.260Z,101557.84
2023-05-05T08:10:12.169Z,101560.16
2023-05-05T08:12:39.940Z,101552.78
2023-05-05T08:15:07.962Z,101553.19
2023-05-05T08:17:52.402Z,101553.53
2023-05-05T08:20:21.138Z,101558.72
2023-05-05T08:22:48.475Z,101549.09
2023-05-05T08:25:15.512Z,101549.84
2023-05-05T08:27:43.474Z,101549.44
2023-05-05T08:30:11.922Z,101546.09
2023-05-05T08:32:39.090Z,101559.88
2023-05-05T08:35:08.294Z,101547.53
2023-05-05T08:37:35.784Z,101550.47
2023-05-05T08:40:03.481Z,101544.41
2023-05-05T08:42:38.798Z,101552.03
2023-05-05T08:45:10.848Z,101553.22
2023-05-05T08:47:39.879Z,101554.31
2023-05-05T08:50:10.969Z,101553.53
2023-05-05T08:52:45.924Z,101553.59
2023-05-05T08:55:26.679Z,101548.13
2023-05-05T08:57:58.660Z,101545.75
2023-05-05T09:00:27.885Z,101545.34
2023-05-05T09:03:00.223Z,101548.09
2023-05-05T09:05:28.888Z,101551.88
2023-05-05T09:07:56.918Z,101545.78
2023-05-05T09:10:30.310Z,101548.53
2023-05-05T09:12:57.629Z,101538.84
2023-05-05T09:15:28.346Z,101543.44
2023-05-05T09:17:58.366Z,101539.81
2023-05-05T09:20:35.290Z,101541.25
2023-05-05T09:23:14.045Z,101532.09
2023-05-05T09:25:49.901Z,101524.53
2023-05-05T09:28:18.961Z,101523.59
2023-05-05T09:30:47.116Z,101529.91
2023-05-05T09:33:14.416Z,101514.63
2023-05-05T09:38:22.900Z,101520.09
2023-05-05T09:40:52.847Z,101517.53
2023-05-05T09:43:22.992Z,101514.00
2023-05-05T09:45:51.105Z,101511.13
2023-05-05T09:48:30.720Z,101502.97
2023-05-05T09:50:59.319Z,101508.38
2023-05-05T09:53:38.653Z,101500.50
2023-05-05T09:56:07.302Z,101498.06
2023-05-05T09:58:35.091Z,101498.03
2023-05-05T10:01:02.881Z,101490.88
2023-05-05T10:03:29.969Z,101495.56
2023-05-05T10:05:59.734Z,101497.63
2023-05-05T10:08:30.988Z,101497.03
2023-05-05T10:11:07.312Z,101496.72
2023-05-05T10:13:41.051Z,101492.53
2023-05-05T10:16:09.649Z,101489.09
2023-05-05T10:18:38.680Z,101484.78
2023-05-05T10:21:06.843Z,101489.34
2023-05-05T10:23:43.725Z,101484.84
2023-05-05T10:26:15.403Z,101486.81
2023-05-05T10:28:53.483Z,101477.16
2023-05-05T10:31:30.219Z,101464.56
2023-05-05T10:34:06.930Z,101461.47
2023-05-05T10:36:34.846Z,101467.88
2023-05-05T10:39:03.342Z,101464.59
2023-05-05T10:41:33.174Z,101461.09
2023-05-05T10:44:03.769Z,101444.97
2023-05-05T10:46:32.067Z,101449.50
2023-05-05T10:49:25.728Z,101448.69
2023-05-05T10:52:02.432Z,101440.59
2023-05-05T10:54:51.296Z,101437.41
2023-05-05T10:57:24.402Z,101437.47
2023-05-05T10:59:52.287Z,101423.34
2023-05-05T11:02:23.822Z,101427.66
2023-05-05T11:05:18.513Z,101418.84
2023-05-05T11:07:49.249Z,101413.63
2023-05-05T11:10:23.346Z,101409.03
2023-05-05T11:13:00.055Z,101405.59
2023-05-05T11:15:30.593Z,101400.53
2023-05-05T11:17:59.997Z,101391.84
2023-05-05T11:20:36.814Z,101403.50
2023-05-05T11:23:22.003Z,101392.81
2023-05-05T11:25:51.425Z,101388.94
2023-05-05T11:28:31.158Z,101387.66
2023-05-05T11:31:01.224Z,101378.28
2023-05-05T11:33:37.733Z,101373.59
2023-05-05T11:36:10.038Z,101376.16
2023-05-05T11:39:12.178Z,101364.72
2023-05-05T11:41:48.620Z,101364.59
2023-05-05T11:44:19.815Z,101363.91
2023-05-05T11:46:52.815Z,101358.81
2023-05-05T11:49:30.658Z,101354.56
2023-05-05T11:52:12.594Z,101360.53
2023-05-05T11:54:50.408Z,101357.47
2023-05-05T11:57:23.916Z,101359.03
2023-05-05T11:59:55.201Z,101356.66
2023-05-05T12:02:23.950Z,101354.63
2023-05-05T12:04:51.727Z,101356.50
2023-05-05T12:07:22.676Z,101349.66
2023-05-05T12:09:50.718Z,101358.19
2023-05-05T12:12:19.061Z,101348.97
2023-05-05T12:14:53.167Z,101346.25
2023-05-05T12:17:22.542Z,101336.66
2023-05-05T12:19:54.783Z,101331.38
2023-05-05T12:22:26.941Z,101336.16
2023-05-05T12:24:55.766Z,101332.75
2023-05-05T12:27:23.276Z,101337.88
2023-05-05T12:29:52.664Z,101331.56
2023-05-05T12:32:28.166Z,101328.31
2023-05-05T12:34:57.603Z,101326.59
2023-05-05T12:37:26.887Z,101318.38
2023-05-05T12:39:55.178Z,101314.97
2023-05-05T12:42:23.408Z,101320.44
2023-05-05T12:44:50.729Z,101320.41
2023-05-05T12:47:32.495Z,101311.03
2023-05-05T12:50:00.575Z,101309.31
2023-05-05T12:52:45.312Z,101305.75
2023-05-05T12:55:13.223Z,101301.09
2023-05-05T12:58:01.005Z,101308.75
2023-05-05T13:00:29.252Z,101302.78
2023-05-05T13:02:56.964Z,101295.72
2023-05-05T13:05:41.087Z,101298.50
2023-05-05T13:08:08.060Z,101285.13
2023-05-05T13:10:36.337Z,101283.78
2023-05-05T13:13:05.018Z,101277.97
2023-05-05T13:15:33.813Z,101268.50
2023-05-05T13:18:01.540Z,101264.25
2023-05-05T13:20:29.759Z,101263.56
2023-05-05T13:22:57.424Z,101260.84
2023-05-05T13:25:24.422Z,101260.47
2023-05-05T13:27:51.494Z,101251.84
2023-05-05T13:30:18.580Z,101249.94
2023-05-05T13:32:45.597Z,101245.66
2023-05-05T13:35:15.454Z,101247.00
2023-05-05T13:37:44.404Z,101242.50
2023-05-05T13:40:13.437Z,101244.56
2023-05-05T13:42:40.430Z,101238.25
2023-05-05T13:45:08.357Z,101242.81
2023-05-05T13:47:35.987Z,101242.78
2023-05-05T13:50:03.138Z,101239.28
2023-05-05T13:52:31.809Z,101232.97
2023-05-05T13:55:00.934Z,101231.25
2023-05-05T13:57:28.105Z,101227.31
2023-05-05T13:59:55.156Z,101230.38
2023-05-05T14:02:22.204Z,101218.06
2023-05-05T14:04:49.312Z,101214.50
2023-05-05T14:07:16.960Z,101216.13
2023-05-05T14:09:44.456Z,101202.81
2023-05-05T14:12:11.685Z,101205.94
2023-05-05T14:14:38.662Z,101207.28
2023-05-05T14:17:05.940Z,101210.16
2023-05-05T14:19:33.515Z,101207.59
2023-05-05T14:22:00.557Z,101199.31
2023-05-05T14:24:27.599Z,101200.66
2023-05-05T14:26:54.730Z,101198.75
2023-05-05T14:29:21.686Z,101200.34
2023-05-05T14:31:48.740Z,101204.63
2023-05-05T14:34:15.777Z,101200.31
2023-05-05T14:36:42.682Z,101194.22
2023-05-05T14:39:09.660Z,101197.16
2023-05-05T14:41:36.770Z,101194.16
2023-05-05T14:44:03.915Z,101192.72
2023-05-05T14:46:31.737Z,101195.00
2023-05-05T14:48:59.056Z,101186.00
2023-05-05T14:51:26.145Z,101197.91
2023-05-05T14:53:53.144Z,101187.31
2023-05-05T14:56:22.563Z,101188.34
2023-05-05T14:58:49.633Z,101183.03
2023-05-05T15:01:16.940Z,101174.91
2023-05-05T15:03:44.081Z,101185.88
2023-05-05T15:06:11.200Z,101180.88
2023-05-05T15:08:39.209Z,101181.25
2023-05-05T15:11:06.674Z,101174.06
2023-05-05T15:13:33.697Z,101173.03
2023-05-05T15:16:00.941Z,101172.81
2023-05-05T15:18:27.925Z,101168.03
2023-05-05T15:20:54.871Z,101174.81
2023-05-05T15:23:21.916Z,101169.66
2023-05-05T15:25:48.972Z,101170.50
2023-05-05T15:28:16.056Z,101172.56
2023-05-05T15:30:43.181Z,101169.22
2023-05-05T15:33:10.257Z,101173.28
2023-05-05T15:35:37.488Z,101166.22
2023-05-05T15:38:04.507Z,101162.56
2023-05-05T15:40:31.661Z,101166.00
2023-05-05T15:42:58.868Z,101162.44
2023-05-05T15:45:26.076Z,101162.25
2023-05-05T15:47:53.820Z,101158.31
2023-05-05T15:50:21.237Z,101160.53
2023-05-05T15:52:50.075Z,101150.31
2023-05-05T15:55:17.564Z,101152.19
2023-05-05T15:57:44.575Z,101149.47
2023-05-05T16:00:12.469Z,101151.72
2023-05-05T16:02:39.756Z,101146.03
2023-05-05T16:05:07.272Z,101156.16
2023-05-05T16:07:34.493Z,101146.28
2023-05-05T16:10:01.521Z,101146.19
2023-05-05T16:12:28.608Z,101141.94
2023-05-05T16:14:55.822Z,101148.16
2023-05-05T16:17:22.956Z,101133.78
2023-05-05T16:19:49.986Z,101145.75
2023-05-05T16:22:17.016Z,101137.91
2023-05-05T16:24:44.437Z,101145.09
2023-05-05T16:27:11.617Z,101137.91
2023-05-05T16:29:38.668Z,101143.03
2023-05-05T16:32:06.168Z,101138.28
2023-05-05T16:34:33.624Z,101133.16
2023-05-05T16:37:00.844Z,101135.72
2023-05-05T16:39:27.918Z,101123.75
2023-05-05T16:41:55.012Z,101128.38
2023-05-05T16:44:21.963Z,101123.75
2023-05-05T16:46:48.934Z,101118.44
2023-05-05T16:49:16.122Z,101117.59
2023-05-05T16:51:43.115Z,101117.78
2023-05-05T16:54:10.174Z,101125.47
2023-05-05T16:56:37.344Z,101112.47
2023-05-05T16:59:04.351Z,101109.75
2023-05-05T17:01:32.067Z,101116.91
2023-05-05T17:04:02.449Z,101112.47
2023-05-05T17:06:33.221Z,101107.19
2023-05-05T17:09:00.437Z,101103.59
2023-05-05T17:11:27.500Z,101099.16
2023-05-05T17:13:54.576Z,101100.00
2023-05-05T17:16:21.559Z,101092.00
2023-05-05T17:18:48.607Z,101092.34
2023-05-05T17:21:15.605Z,101099.72
2023-05-05T17:23:42.712Z,101105.34
2023-05-05T17:26:09.727Z,101101.28
2023-05-05T17:28:36.917Z,101104.53
2023-05-05T17:31:03.914Z,101102.69
2023-05-05T17:33:31.739Z,101101.16
2023-05-05T17:35:59.095Z,101103.41
2023-05-05T17:38:26.221Z,101095.56
2023-05-05T17:40:53.396Z,101101.59
2023-05-05T17:43:20.392Z,101101.25
2023-05-05T17:45:47.528Z,101107.09
2023-05-05T17:48:14.604Z,101107.81
2023-05-05T17:50:43.418Z,101105.78
2023-05-05T17:53:11.188Z,101111.97
2023-05-05T17:55:38.440Z,101117.44
2023-05-05T17:58:05.459Z,101108.25
2023-05-05T18:00:32.456Z,101117.13
2023-05-05T18:03:04.614Z,101116.63
2023-05-05T18:05:31.961Z,101121.09
2023-05-05T18:07:59.307Z,101122.84
2023-05-05T18:10:26.513Z,101118.91
2023-05-05T18:12:53.544Z,101114.81
2023-05-05T18:15:21.691Z,101117.06
2023-05-05T18:17:48.699Z,101117.41
2023-05-05T18:20:16.102Z,101126.94
2023-05-05T18:22:43.161Z,101115.72
2023-05-05T18:25:10.466Z,101120.66
2023-05-05T18:27:40.138Z,101117.44
2023-05-05T18:30:08.323Z,101120.00
2023-05-05T18:32:35.441Z,101121.34
2023-05-05T18:35:02.752Z,101118.94
2023-05-05T18:37:29.812Z,101121.31
2023-05-05T18:39:56.809Z,101120.63
2023-05-05T18:42:23.757Z,101117.59
2023-05-05T18:44:50.714Z,101117.06
2023-05-05T18:47:17.657Z,101125.59
2023-05-05T18:49:45.507Z,101122.50
2023-05-05T18:52:12.524Z,101122.16
2023-05-05T18:54:39.613Z,101128.97
2023-05-05T18:57:07.043Z,101130.50
2023-05-05T18:59:34.166Z,101131.19
2023-05-05T19:02:01.318Z,101142.78
2023-05-05T19:04:31.648Z,101139.69
2023-05-05T19:06:59.912Z,101144.13
2023-05-05T19:09:27.554Z,101136.59
2023-05-05T19:12:00.500Z,101137.22
2023-05-05T19:14:27.711Z,101140.78
2023-05-05T19:16:56.039Z,101136.00
2023-05-05T19:19:23.356Z,101144.81
2023-05-05T19:21:50.978Z,101148.91
2023-05-05T19:24:17.977Z,101147.69
2023-05-05T19:26:45.063Z,101160.94
2023-05-05T19:29:12.860Z,101160.59
2023-05-05T19:31:39.982Z,101155.78
2023-05-05T19:34:07.476Z,101163.44
2023-05-05T19:36:35.419Z,101171.22
2023-05-05T19:39:04.743Z,101167.97
2023-05-05T19:41:32.719Z,101163.88
2023-05-05T19:44:00.210Z,101169.91
2023-05-05T19:46:27.666Z,101169.38
2023-05-05T19:48:55.085Z,101175.34
2023-05-05T19:51:22.245Z,101171.19
2023-05-05T19:53:50.257Z,101174.56
2023-05-05T19:56:17.506Z,101179.47
2023-05-05T19:58:59.283Z,101179.09
2023-05-05T20:01:28.052Z,101176.00
2023-05-05T20:03:57.089Z,101171.72
2023-05-05T20:06:27.595Z,101177.81
2023-05-05T20:08:55.472Z,101176.41
2023-05-05T20:11:23.180Z,101172.28
2023-05-05T20:13:51.624Z,101176.34
2023-05-05T20:16:18.941Z,101175.81
2023-05-05T20:18:45.970Z,101173.53
2023-05-05T20:21:13.190Z,101171.28
2023-05-05T20:23:40.310Z,101178.38
2023-05-05T20:26:07.785Z,101173.34
2023-05-05T20:28:35.547Z,101179.28
2023-05-05T20:31:02.501Z,101171.56
2023-05-05T20:33:29.736Z,101175.47
2023-05-05T20:35:57.030Z,101180.31
2023-05-05T20:38:24.422Z,101184.38
2023-05-05T20:40:52.324Z,101180.09
2023-05-05T20:43:19.709Z,101176.69
2023-05-05T20:45:47.198Z,101181.59
2023-05-05T20:48:14.192Z,101182.75
2023-05-05T20:50:42.139Z,101179.31
2023-05-05T20:53:13.715Z,101178.75
2023-05-05T20:55:40.900Z,101170.06
2023-05-05T20:58:07.946Z,101168.34
2023-05-05T21:00:35.410Z,101181.41
2023-05-05T21:03:04.339Z,101168.09
2023-05-05T21:05:31.714Z,101167.41
2023-05-05T21:08:00.845Z,101173.00
2023-05-05T21:10:29.144Z,101171.44
2023-05-05T21:12:56.380Z,101161.72
2023-05-05T21:15:23.418Z,101164.91
2023-05-05T21:17:50.637Z,101162.31
2023-05-05T21:20:18.784Z,101162.78
2023-05-05T21:22:46.263Z,101166.66
2023-05-05T21:25:20.315Z,101151.50
2023-05-05T21:27:48.880Z,101150.06
2023-05-05T21:30:16.610Z,101139.50
2023-05-05T21:32:44.137Z,101152.53
2023-05-05T21:35:11.504Z,101146.53
2023-05-05T21:37:39.296Z,101146.84
2023-05-05T21:40:13.646Z,101149.84
2023-05-05T21:42:42.417Z,101147.44
2023-05-05T21:45:11.477Z,101147.72
2023-05-05T21:47:38.672Z,101147.19
2023-05-05T21:50:06.763Z,101151.03
2023-05-05T21:52:34.006Z,101147.78
2023-05-05T21:55:01.163Z,101150.78
2023-05-05T21:57:28.465Z,101142.94
2023-05-05T21:59:55.801Z,101143.38
2023-05-05T22:02:23.402Z,101141.94
2023-05-05T22:04:54.847Z,101149.69
2023-05-05T22:07:22.051Z,101146.25
2023-05-05T22:09:49.024Z,101137.84
2023-05-05T22:12:16.387Z,101140.00
2023-05-05T22:14:43.380Z,101141.31
2023-05-05T22:17:11.414Z,101142.47
2023-05-05T22:19:38.421Z,101136.47
2023-05-05T22:22:05.460Z,101134.91
2023-05-05T22:24:32.559Z,101139.72
2023-05-05T22:26:59.709Z,101135.59
2023-05-05T22:29:26.606Z,101134.88
2023-05-05T22:31:53.553Z,101139.63
2023-05-05T22:34:21.964Z,101134.47
2023-05-05T22:36:49.924Z,101138.31
2023-05-05T22:39:18.515Z,101130.59
2023-05-05T22:41:45.733Z,101139.91
2023-05-05T22:44:12.828Z,101144.63
2023-05-05T22:46:39.862Z,101141.75
2023-05-05T22:49:06.966Z,101146.63
2023-05-05T22:51:34.239Z,101141.63
2023-05-05T22:54:01.421Z,101141.91
2023-05-05T22:56:28.374Z,101135.06
2023-05-05T22:58:56.038Z,101145.06
2023-05-05T23:01:23.213Z,101128.06
2023-05-05T23:03:50.330Z,101130.94
2023-05-05T23:06:17.455Z,101130.34
2023-05-05T23:08:44.707Z,101124.34
2023-05-05T23:11:11.779Z,101125.50
2023-05-05T23:13:38.731Z,101125.78
2023-05-05T23:16:05.920Z,101127.06
2023-05-05T23:18:32.940Z,101131.78
2023-05-05T23:20:59.988Z,101129.34
2023-05-05T23:23:27.038Z,101134.19
2023-05-05T23:25:54.111Z,101135.59
2023-05-05T23:28:21.081Z,101142.28
2023-05-05T23:30:48.266Z,101140.81
2023-05-05T23:33:15.419Z,101129.28
2023-05-05T23:35:45.184Z,101132.97
2023-05-05T23:38:12.290Z,101127.88
2023-05-05T23:40:39.257Z,101134.41
2023-05-05T23:43:06.316Z,101131.97
2023-05-05T23:45:33.474Z,101128.41
2023-05-05T23:48:00.516Z,101127.53
2023-05-05T23:50:27.870Z,101132.09
2023-05-05T23:52:54.908Z,101129.66
2023-05-05T23:55:22.294Z,101126.38
2023-05-05T23:57:51.630Z,101128.41
